Terminal Aerodrome Forecast
Issued by NWS Cleveland, OH

Home | Current Version | Previous Version | Graphics & Text | Print | Product List | Glossary On
Versions: 1 2 3 4 5 6 7 8 9 10 11 12 13 14 15 16 17 18
000
FTUS41 KCLE 191125
TAFERI
TAF
KERI 191125Z 1912/2012 31015G30KT P6SM -SHRA OVC025
      TEMPO 1912/1916 OVC015
     FM192000 28015G25KT P6SM -SHRASN OVC025
     FM200400 28010G20KT 3SM -SHSN OVC025=

USA.gov is the U.S. government's official web portal to all federal, state and local government web resources and services.